Time;durP1;ratioP1;P1;durP2;ratioP2;P2;SDS_P1;SDS_P2;PMS_P1;PMS_P2;Temp;Humidity;BMP_temperature;BMP_pressure;BME280_temperature;BME280_humidity;BME280_pressure;Samples;Min_cycle;Max_cycle;Signal;HPM_P1;HPM_P2
2021/04/17 00:02:19;;;;;;;3.58;1.73;;;;;;;;;;5071003;28;20040;-46
2021/04/17 00:04:45;;;;;;;5.88;1.83;;;;;;;;;;5070686;28;20116;-47
2021/04/17 00:07:12;;;;;;;4.90;1.88;;;;;;;;;;5087418;28;20056;-51
2021/04/17 00:09:39;;;;;;;5.63;1.70;;;;;;;;;;5068769;28;20055;-49
2021/04/17 00:12:08;;;;;;;6.43;1.67;;;;;;;;;;5068711;28;20049;-48
2021/04/17 00:14:35;;;;;;;5.43;1.83;;;;;;;;;;5072517;28;20510;-50
2021/04/17 00:17:11;;;;;;;4.70;1.52;;;;;;;;;;5070042;28;20059;-48
2021/04/17 00:19:38;;;;;;;5.28;1.40;;;;;;;;;;5066780;28;20059;-50
2021/04/17 00:22:04;;;;;;;5.28;1.67;;;;;;;;;;5063412;28;20068;-46
2021/04/17 00:24:31;;;;;;;8.27;2.00;;;;;;;;;;5069322;28;20090;-46
2021/04/17 00:26:57;;;;;;;3.33;1.97;;;;;;;;;;5068695;28;20048;-46
2021/04/17 00:29:23;;;;;;;3.40;1.70;;;;;;;;;;5066727;28;20106;-48
2021/04/17 00:31:50;;;;;;;5.88;1.73;;;;;;;;;;5072701;28;20052;-50
2021/04/17 00:34:16;;;;;;;3.05;1.50;;;;;;;;;;5066707;28;20132;-52
2021/04/17 00:36:42;;;;;;;5.35;1.85;;;;;;;;;;5069410;28;20040;-50
2021/04/17 00:39:08;;;;;;;6.25;1.55;;;;;;;;;;5061067;28;20052;-47
2021/04/17 00:41:35;;;;;;;7.55;1.80;;;;;;;;;;5070805;28;20048;-51
2021/04/17 00:44:02;;;;;;;4.53;1.85;;;;;;;;;;5070193;28;20071;-50
2021/04/17 00:46:29;;;;;;;3.70;1.60;;;;;;;;;;5071839;28;20075;-46
2021/04/17 00:48:55;;;;;;;6.55;2.03;;;;;;;;;;5068276;28;20146;-48
2021/04/17 00:51:22;;;;;;;5.13;2.13;;;;;;;;;;5069071;28;20654;-47
2021/04/17 00:53:49;;;;;;;4.93;1.80;;;;;;;;;;5068082;28;20047;-51
2021/04/17 00:56:19;;;;;;;7.50;1.98;;;;;;;;;;5086180;28;20040;-47
2021/04/17 00:58:46;;;;;;;5.93;1.67;;;;;;;;;;5066394;28;20036;-50
2021/04/17 01:01:12;;;;;;;3.65;1.55;;;;;;;;;;5066288;28;20669;-49
2021/04/17 01:03:41;;;;;;;6.28;1.73;;;;;;;;;;5065596;28;20038;-48
2021/04/17 01:06:13;;;;;;;6.57;1.70;;;;;;;;;;5066600;28;20044;-48
2021/04/17 01:08:44;;;;;;;4.63;1.98;;;;;;;;;;5067968;28;20439;-51
2021/04/17 01:11:14;;;;;;;3.58;1.85;;;;;;;;;;5069872;28;20040;-51
2021/04/17 01:13:42;;;;;;;4.38;1.80;;;;;;;;;;5071015;28;20032;-48
2021/04/17 01:16:08;;;;;;;5.05;1.95;;;;;;;;;;5069725;28;20094;-48
2021/04/17 01:18:36;;;;;;;10.13;2.22;;;;;;;;;;5067371;28;20068;-49
2021/04/17 01:21:03;;;;;;;5.57;1.88;;;;;;;;;;5067464;28;20503;-48
2021/04/17 01:23:44;;;;;;;5.32;2.45;;;;;;;;;;5068486;28;20094;-47
2021/04/17 01:26:13;;;;;;;6.55;2.58;;;;;;;;;;5067366;28;20377;-47
2021/04/17 01:28:41;;;;;;;8.65;2.85;;;;;;;;;;5065739;28;20048;-47
2021/04/17 01:31:10;;;;;;;5.50;2.40;;;;;;;;;;5064735;28;20048;-48
2021/04/17 01:33:37;;;;;;;6.30;2.80;;;;;;;;;;5068380;28;20043;-50
2021/04/17 01:36:04;;;;;;;8.93;2.50;;;;;;;;;;5067398;28;20052;-50
2021/04/17 01:38:32;;;;;;;7.72;2.75;;;;;;;;;;5065430;28;20063;-48
2021/04/17 01:40:58;;;;;;;;;;;;;;;;;;5070573;28;20049;-48
2021/04/17 01:43:26;;;;;;;8.82;3.22;;;;;;;;;;5067418;28;19954;-47
2021/04/17 01:45:53;;;;;;;7.50;2.60;;;;;;;;;;5061850;28;20045;-48
2021/04/17 01:48:20;;;;;;;7.07;3.00;;;;;;;;;;5068159;28;20047;-47
2021/04/17 01:50:47;;;;;;;7.32;2.60;;;;;;;;;;5060805;28;20454;-47
2021/04/17 01:53:19;;;;;;;7.97;2.63;;;;;;;;;;5069167;28;20051;-50
2021/04/17 01:55:46;;;;;;;9.13;2.80;;;;;;;;;;5066564;28;20098;-48
2021/04/17 01:58:12;;;;;;;5.85;2.67;;;;;;;;;;5068079;28;20111;-50
2021/04/17 02:00:38;;;;;;;8.05;2.95;;;;;;;;;;5063847;28;20037;-49
2021/04/17 02:03:05;;;;;;;7.05;2.70;;;;;;;;;;5068251;28;20048;-50
2021/04/17 02:05:31;;;;;;;10.45;3.15;;;;;;;;;;5066608;28;20045;-48
2021/04/17 02:07:58;;;;;;;9.70;2.83;;;;;;;;;;5065975;28;20044;-48
2021/04/17 02:10:25;;;;;;;6.20;2.42;;;;;;;;;;5064675;28;20045;-46
2021/04/17 02:12:51;;;;;;;9.88;3.13;;;;;;;;;;5067211;28;20045;-49
2021/04/17 02:15:17;;;;;;;11.40;3.42;;;;;;;;;;5066148;28;20037;-52
2021/04/17 02:17:43;;;;;;;9.43;2.72;;;;;;;;;;5064818;28;20048;-48
2021/04/17 02:20:12;;;;;;;8.02;2.40;;;;;;;;;;5066674;28;20045;-48
2021/04/17 02:22:40;;;;;;;12.70;2.75;;;;;;;;;;5064572;28;20393;-51
2021/04/17 02:25:06;;;;;;;7.40;2.75;;;;;;;;;;5064407;28;20101;-51
2021/04/17 02:27:33;;;;;;;9.77;2.90;;;;;;;;;;5065863;28;20523;-48
2021/04/17 02:29:59;;;;;;;8.52;2.50;;;;;;;;;;5068290;28;20052;-47
2021/04/17 02:32:27;;;;;;;6.60;2.60;;;;;;;;;;5068594;28;20094;-48
2021/04/17 02:34:53;;;;;;;9.02;2.63;;;;;;;;;;5066537;28;20071;-48
2021/04/17 02:37:19;;;;;;;5.95;2.25;;;;;;;;;;5062465;28;20082;-48
2021/04/17 02:39:46;;;;;;;7.50;2.28;;;;;;;;;;5066710;28;20032;-46
2021/04/17 02:42:13;;;;;;;7.18;2.22;;;;;;;;;;5067306;28;20130;-49
2021/04/17 02:44:39;;;;;;;8.65;1.95;;;;;;;;;;5065295;28;20033;-47
2021/04/17 02:47:06;;;;;;;6.47;2.20;;;;;;;;;;5068710;28;20045;-48
2021/04/17 02:49:32;;;;;;;7.28;2.05;;;;;;;;;;5070539;28;20073;-48
2021/04/17 02:51:58;;;;;;;7.07;2.10;;;;;;;;;;5074074;28;20036;-50
2021/04/17 02:54:25;;;;;;;5.53;2.28;;;;;;;;;;5068168;28;20516;-48
2021/04/17 02:56:51;;;;;;;11.95;2.85;;;;;;;;;;5070057;28;20082;-48
2021/04/17 02:59:17;;;;;;;10.23;2.10;;;;;;;;;;5065607;28;20102;-48
2021/04/17 03:01:45;;;;;;;3.78;1.95;;;;;;;;;;5071646;28;20469;-51
2021/04/17 03:04:12;;;;;;;4.45;1.73;;;;;;;;;;5066856;28;20048;-49
2021/04/17 03:06:38;;;;;;;5.55;1.95;;;;;;;;;;5069305;28;20131;-48
2021/04/17 03:09:04;;;;;;;7.18;2.40;;;;;;;;;;5067345;28;20098;-50
2021/04/17 03:11:30;;;;;;;8.23;2.53;;;;;;;;;;5064598;28;20127;-49
2021/04/17 03:13:57;;;;;;;6.60;2.53;;;;;;;;;;5068436;28;20083;-48
2021/04/17 03:16:24;;;;;;;9.32;2.20;;;;;;;;;;5065638;28;20580;-47
2021/04/17 03:18:50;;;;;;;9.18;2.42;;;;;;;;;;5068600;28;20063;-49
2021/04/17 03:21:17;;;;;;;4.53;2.00;;;;;;;;;;5068242;28;20122;-47
2021/04/17 03:23:43;;;;;;;6.90;2.40;;;;;;;;;;5069999;28;20462;-48
2021/04/17 03:26:09;;;;;;;8.15;2.05;;;;;;;;;;5072539;28;20048;-47
2021/04/17 03:28:38;;;;;;;5.68;2.30;;;;;;;;;;5066887;28;20041;-49
2021/04/17 03:31:04;;;;;;;8.15;2.10;;;;;;;;;;5071460;28;20119;-48
2021/04/17 03:33:31;;;;;;;7.75;1.83;;;;;;;;;;5074120;28;20033;-50
2021/04/17 03:35:57;;;;;;;9.30;2.22;;;;;;;;;;5068153;28;20041;-49
2021/04/17 03:38:23;;;;;;;5.68;2.00;;;;;;;;;;5071078;28;20048;-47
2021/04/17 03:40:50;;;;;;;5.82;2.15;;;;;;;;;;5070978;28;20056;-50
2021/04/17 03:43:16;;;;;;;6.47;2.00;;;;;;;;;;5069889;28;20414;-50
2021/04/17 03:45:43;;;;;;;7.40;2.40;;;;;;;;;;5071125;28;20055;-47
2021/04/17 03:48:09;;;;;;;3.28;2.00;;;;;;;;;;5070579;28;20048;-48
2021/04/17 03:50:36;;;;;;;4.20;2.00;;;;;;;;;;5071678;28;20047;-49
2021/04/17 03:53:03;;;;;;;6.40;2.10;;;;;;;;;;5070630;28;20492;-50
2021/04/17 03:55:29;;;;;;;7.78;2.25;;;;;;;;;;5070133;28;20119;-48
2021/04/17 03:57:55;;;;;;;5.60;2.20;;;;;;;;;;5070254;28;20584;-47
2021/04/17 04:00:22;;;;;;;12.70;2.30;;;;;;;;;;5068217;28;20040;-50
2021/04/17 04:02:48;;;;;;;11.23;2.42;;;;;;;;;;5069318;28;20033;-48
2021/04/17 04:05:15;;;;;;;7.97;2.30;;;;;;;;;;5068808;28;20045;-49
2021/04/17 04:07:43;;;;;;;7.00;2.45;;;;;;;;;;5065742;28;20068;-50
2021/04/17 04:10:09;;;;;;;5.03;2.08;;;;;;;;;;5067435;28;20048;-50
2021/04/17 04:12:35;;;;;;;6.45;2.17;;;;;;;;;;5069450;28;20052;-47
2021/04/17 04:15:02;;;;;;;6.85;2.17;;;;;;;;;;5068647;28;20506;-49
2021/04/17 04:17:29;;;;;;;7.53;2.10;;;;;;;;;;5067475;28;20076;-48
2021/04/17 04:19:55;;;;;;;7.43;2.22;;;;;;;;;;5069339;28;20337;-49
2021/04/17 04:22:22;;;;;;;5.70;2.20;;;;;;;;;;5071259;28;20098;-50
2021/04/17 04:24:48;;;;;;;8.00;2.33;;;;;;;;;;5068308;28;20045;-47
2021/04/17 04:27:14;;;;;;;4.60;1.95;;;;;;;;;;5063633;28;20044;-51
2021/04/17 04:29:40;;;;;;;5.72;2.20;;;;;;;;;;5066674;28;20036;-48
2021/04/17 04:32:06;;;;;;;7.63;2.10;;;;;;;;;;5068823;28;20064;-51
2021/04/17 04:34:33;;;;;;;7.13;2.30;;;;;;;;;;5069644;28;20047;-50
2021/04/17 04:36:59;;;;;;;7.10;2.50;;;;;;;;;;5064173;28;20548;-51
2021/04/17 04:39:26;;;;;;;6.32;2.50;;;;;;;;;;5066525;28;20447;-49
2021/04/17 04:41:52;;;;;;;14.30;2.60;;;;;;;;;;5068310;28;20040;-46
2021/04/17 04:44:19;;;;;;;6.13;1.87;;;;;;;;;;5065538;28;20052;-50
2021/04/17 04:46:45;;;;;;;6.78;2.08;;;;;;;;;;5067857;28;20294;-46
2021/04/17 04:49:11;;;;;;;11.57;2.30;;;;;;;;;;5061582;28;20044;-49
2021/04/17 04:51:38;;;;;;;10.18;2.55;;;;;;;;;;5067469;28;20140;-46
2021/04/17 04:54:04;;;;;;;7.13;2.42;;;;;;;;;;5066126;28;20489;-49
2021/04/17 04:56:30;;;;;;;7.32;2.45;;;;;;;;;;5061148;28;20512;-48
2021/04/17 04:58:57;;;;;;;8.55;2.17;;;;;;;;;;5066251;28;20033;-51
2021/04/17 05:01:23;;;;;;;7.22;1.95;;;;;;;;;;5064717;28;20623;-46
2021/04/17 05:03:50;;;;;;;5.97;2.15;;;;;;;;;;5068328;28;20055;-50
2021/04/17 05:06:17;;;;;;;7.55;2.35;;;;;;;;;;5067131;28;20036;-47
2021/04/17 05:08:43;;;;;;;6.03;2.50;;;;;;;;;;5065988;28;20036;-52
2021/04/17 05:11:09;;;;;;;7.38;1.70;;;;;;;;;;5068447;28;20040;-46
2021/04/17 05:13:36;;;;;;;8.20;2.40;;;;;;;;;;5064229;28;20090;-48
2021/04/17 05:16:02;;;;;;;4.03;1.90;;;;;;;;;;5066501;28;20044;-50
2021/04/17 05:18:29;;;;;;;9.55;2.38;;;;;;;;;;5068306;28;20048;-47
2021/04/17 05:20:56;;;;;;;7.85;2.33;;;;;;;;;;5069266;28;20110;-49
2021/04/17 05:23:23;;;;;;;6.10;2.13;;;;;;;;;;5066527;28;20257;-49
2021/04/17 05:25:49;;;;;;;8.52;2.28;;;;;;;;;;5067328;28;20059;-46
2021/04/17 05:28:15;;;;;;;7.15;2.00;;;;;;;;;;5069500;28;20048;-48
2021/04/17 05:30:42;;;;;;;7.07;2.13;;;;;;;;;;5067600;28;20122;-47
2021/04/17 05:33:08;;;;;;;7.32;1.95;;;;;;;;;;5066648;28;20528;-48
2021/04/17 05:35:34;;;;;;;5.65;1.77;;;;;;;;;;5065323;28;20109;-49
2021/04/17 05:38:00;;;;;;;7.00;2.22;;;;;;;;;;5067419;28;20048;-51
2021/04/17 05:40:26;;;;;;;5.10;2.15;;;;;;;;;;5065601;28;20123;-50
2021/04/17 05:42:53;;;;;;;8.68;2.00;;;;;;;;;;5064868;28;20074;-46
2021/04/17 05:45:19;;;;;;;8.93;2.30;;;;;;;;;;5067063;28;20053;-49
2021/04/17 05:47:45;;;;;;;8.65;2.20;;;;;;;;;;5066587;28;20094;-48
2021/04/17 05:50:12;;;;;;;12.77;2.80;;;;;;;;;;5066548;28;20071;-47
2021/04/17 05:52:38;;;;;;;6.93;2.40;;;;;;;;;;5067933;28;20055;-48
2021/04/17 05:55:05;;;;;;;10.30;2.55;;;;;;;;;;5063640;28;20128;-51
2021/04/17 05:57:31;;;;;;;5.60;1.92;;;;;;;;;;5066019;28;20049;-47
2021/04/17 05:59:57;;;;;;;12.35;2.17;;;;;;;;;;5063398;28;20082;-48
2021/04/17 06:02:24;;;;;;;7.45;2.03;;;;;;;;;;5065973;28;20047;-49
2021/04/17 06:04:53;;;;;;;6.38;2.05;;;;;;;;;;5063179;28;20079;-51
2021/04/17 06:07:19;;;;;;;8.23;2.28;;;;;;;;;;5064575;28;20060;-49
2021/04/17 06:09:45;;;;;;;6.75;2.00;;;;;;;;;;5061863;28;20448;-50
2021/04/17 06:12:12;;;;;;;3.95;2.10;;;;;;;;;;5065482;28;20158;-50
2021/04/17 06:14:38;;;;;;;4.43;2.22;;;;;;;;;;5066327;28;20094;-50
2021/04/17 06:17:04;;;;;;;6.43;2.60;;;;;;;;;;5069973;28;20139;-50
2021/04/17 06:19:31;;;;;;;5.68;2.53;;;;;;;;;;5065118;28;20500;-49
2021/04/17 06:21:58;;;;;;;6.10;2.40;;;;;;;;;;5069426;28;20048;-52
2021/04/17 06:24:24;;;;;;;5.90;2.33;;;;;;;;;;5066520;28;20073;-48
2021/04/17 06:26:50;;;;;;;6.43;2.38;;;;;;;;;;5072047;28;20131;-51
2021/04/17 06:29:17;;;;;;;11.88;2.30;;;;;;;;;;5069463;28;20052;-47
2021/04/17 06:31:43;;;;;;;4.70;2.20;;;;;;;;;;5067859;28;20510;-48
2021/04/17 06:34:10;;;;;;;5.43;2.28;;;;;;;;;;5071965;28;20045;-50
2021/04/17 06:36:36;;;;;;;5.90;2.33;;;;;;;;;;5073559;28;20048;-46
2021/04/17 06:39:06;;;;;;;4.10;2.25;;;;;;;;;;5067212;28;20045;-48
2021/04/17 06:41:33;;;;;;;6.30;2.25;;;;;;;;;;5063029;28;20488;-47
2021/04/17 06:44:00;;;;;;;7.32;2.63;;;;;;;;;;5064401;28;20036;-50
2021/04/17 06:46:30;;;;;;;6.20;2.30;;;;;;;;;;5067939;28;20488;-51
2021/04/17 06:49:01;;;;;;;9.32;2.60;;;;;;;;;;5067114;28;20090;-51
2021/04/17 06:51:27;;;;;;;6.53;2.17;;;;;;;;;;5069454;28;20107;-48
2021/04/17 06:53:53;;;;;;;9.27;2.07;;;;;;;;;;5064998;28;20033;-47
2021/04/17 06:56:22;;;;;;;8.10;2.60;;;;;;;;;;5064074;28;20051;-51
2021/04/17 06:58:48;;;;;;;4.80;1.80;;;;;;;;;;5066335;28;20083;-50
2021/04/17 07:01:14;;;;;;;7.07;2.28;;;;;;;;;;5067074;28;20040;-51
2021/04/17 07:03:41;;;;;;;7.23;2.13;;;;;;;;;;5070302;28;20033;-48
2021/04/17 07:06:07;;;;;;;4.50;1.90;;;;;;;;;;5069917;28;20041;-49
2021/04/17 07:08:33;;;;;;;6.65;2.13;;;;;;;;;;5072024;28;20049;-47
2021/04/17 07:11:00;;;;;;;4.65;2.15;;;;;;;;;;5072531;28;20068;-47
2021/04/17 07:13:27;;;;;;;6.28;2.22;;;;;;;;;;5068576;28;20146;-50
2021/04/17 07:16:03;;;;;;;5.13;2.17;;;;;;;;;;5069124;28;20054;-51
2021/04/17 07:18:30;;;;;;;8.35;2.60;;;;;;;;;;5064565;28;20098;-51
2021/04/17 07:20:59;;;;;;;6.45;2.28;;;;;;;;;;5065729;28;20877;-48
2021/04/17 07:23:32;;;;;;;6.30;2.03;;;;;;;;;;5069711;28;20050;-51
2021/04/17 07:26:16;;;;;;;6.35;2.10;;;;;;;;;;5069945;28;20036;-50
2021/04/17 07:28:54;;;;;;;7.43;1.85;;;;;;;;;;5068400;28;20439;-49
2021/04/17 07:31:25;;;;;;;6.38;2.10;;;;;;;;;;5064613;28;20550;-49
2021/04/17 07:33:51;;;;;;;4.68;1.80;;;;;;;;;;5071650;28;20048;-48
2021/04/17 07:36:18;;;;;;;10.70;2.38;;;;;;;;;;5064983;28;20175;-53
2021/04/17 07:38:46;;;;;;;5.55;2.05;;;;;;;;;;5062677;28;20052;-51
2021/04/17 07:41:13;;;;;;;4.47;1.90;;;;;;;;;;5067581;28;20098;-49
2021/04/17 07:43:43;;;;;;;7.03;2.30;;;;;;;;;;5069761;28;20396;-50
2021/04/17 07:46:10;;;;;;;8.75;2.20;;;;;;;;;;5066665;28;20524;-53
2021/04/17 07:48:36;;;;;;;9.30;2.15;;;;;;;;;;5071089;28;20056;-51
2021/04/17 07:51:06;;;;;;;7.90;2.08;;;;;;;;;;5070162;28;20096;-52
2021/04/17 07:53:33;;;;;;;10.20;2.20;;;;;;;;;;5068173;28;20082;-50
2021/04/17 07:56:17;;;;;;;7.88;2.25;;;;;;;;;;5062930;28;20121;-47
2021/04/17 07:58:47;;;;;;;4.43;2.13;;;;;;;;;;5063264;28;20918;-50
2021/04/17 08:01:17;;;;;;;9.43;2.40;;;;;;;;;;5062774;28;20131;-52
2021/04/17 08:03:45;;;;;;;2.67;1.85;;;;;;;;;;5068427;28;20049;-51
2021/04/17 08:06:13;;;;;;;5.80;2.30;;;;;;;;;;5071464;28;20094;-47
2021/04/17 08:08:40;;;;;;;8.07;2.45;;;;;;;;;;5066391;28;20130;-49
2021/04/17 08:11:07;;;;;;;5.18;2.40;;;;;;;;;;5071131;28;20089;-49
2021/04/17 08:13:35;;;;;;;4.85;2.00;;;;;;;;;;5065877;28;20040;-48
2021/04/17 08:16:01;;;;;;;;;;;;;;;;;;5063306;28;20056;-50
2021/04/17 08:18:27;;;;;;;4.30;2.10;;;;;;;;;;5064468;28;19921;-48
2021/04/17 08:20:54;;;;;;;7.47;2.45;;;;;;;;;;5066348;28;20434;-51
2021/04/17 08:23:23;;;;;;;4.22;1.80;;;;;;;;;;5066092;28;20041;-48
2021/04/17 08:25:51;;;;;;;8.55;2.53;;;;;;;;;;5067052;28;20040;-51
2021/04/17 08:28:21;;;;;;;5.03;2.00;;;;;;;;;;5071623;28;20687;-49
2021/04/17 08:30:48;;;;;;;4.25;1.90;;;;;;;;;;5067151;28;20056;-52
2021/04/17 08:33:16;;;;;;;9.23;2.17;;;;;;;;;;5066794;28;20044;-52
2021/04/17 08:35:43;;;;;;;6.50;2.05;;;;;;;;;;5068008;28;20439;-53
2021/04/17 08:38:10;;;;;;;4.07;1.80;;;;;;;;;;5061781;28;20048;-49
2021/04/17 08:40:37;;;;;;;4.03;2.20;;;;;;;;;;5065394;28;20110;-49
2021/04/17 08:43:04;;;;;;;5.07;2.00;;;;;;;;;;5066742;28;20052;-50
2021/04/17 08:45:31;;;;;;;3.67;1.70;;;;;;;;;;5068663;28;20032;-49
2021/04/17 08:47:59;;;;;;;3.65;1.88;;;;;;;;;;5067219;28;20047;-50
2021/04/17 08:50:29;;;;;;;3.22;1.50;;;;;;;;;;5066852;28;20053;-47
2021/04/17 08:52:57;;;;;;;5.50;2.22;;;;;;;;;;5070623;28;20048;-49
2021/04/17 08:55:36;;;;;;;3.97;2.05;;;;;;;;;;5059155;28;20045;-52
2021/04/17 08:58:17;;;;;;;6.93;2.05;;;;;;;;;;5063784;28;20504;-51
2021/04/17 09:00:52;;;;;;;4.68;2.05;;;;;;;;;;5064803;28;20082;-52
2021/04/17 09:03:37;;;;;;;4.57;1.95;;;;;;;;;;5066331;28;20056;-49
2021/04/17 09:06:06;;;;;;;7.80;2.00;;;;;;;;;;5069164;28;20040;-54
2021/04/17 09:08:32;;;;;;;;;;;;;;;;;;5068853;28;20484;-52
2021/04/17 09:10:59;;;;;;;8.63;2.22;;;;;;;;;;5064780;28;19978;-51
2021/04/17 09:13:25;;;;;;;4.78;2.33;;;;;;;;;;5084339;28;20131;-50
2021/04/17 09:16:00;;;;;;;6.85;2.75;;;;;;;;;;5063414;28;20112;-51
2021/04/17 09:18:32;;;;;;;3.92;1.70;;;;;;;;;;5066085;28;20061;-50
2021/04/17 09:21:06;;;;;;;5.25;1.80;;;;;;;;;;5063502;28;20048;-49
2021/04/17 09:23:40;;;;;;;4.18;1.98;;;;;;;;;;5070352;28;20033;-46
2021/04/17 09:26:09;;;;;;;4.60;1.90;;;;;;;;;;5064543;28;20054;-49
2021/04/17 09:28:36;;;;;;;3.63;1.90;;;;;;;;;;5067431;28;20044;-48
2021/04/17 09:31:04;;;;;;;4.70;1.50;;;;;;;;;;5065029;28;20047;-52
2021/04/17 09:33:31;;;;;;;5.60;1.77;;;;;;;;;;5062848;28;20036;-50
2021/04/17 09:35:57;;;;;;;2.85;1.60;;;;;;;;;;5069591;28;20140;-47
2021/04/17 09:38:29;;;;;;;6.13;1.88;;;;;;;;;;5067529;28;20105;-51
2021/04/17 09:40:57;;;;;;;3.63;2.03;;;;;;;;;;5067609;28;20123;-50
2021/04/17 09:43:23;;;;;;;3.85;1.60;;;;;;;;;;5062895;28;20074;-52
2021/04/17 09:45:51;;;;;;;5.03;1.77;;;;;;;;;;5065671;28;20116;-50
2021/04/17 09:48:20;;;;;;;3.13;1.60;;;;;;;;;;5066312;28;20064;-48
2021/04/17 09:50:46;;;;;;;2.80;1.58;;;;;;;;;;5068591;28;20036;-48
2021/04/17 09:53:12;;;;;;;4.57;1.73;;;;;;;;;;5066643;28;20041;-52
2021/04/17 09:55:48;;;;;;;6.10;1.90;;;;;;;;;;5076017;28;20091;-48
2021/04/17 09:58:24;;;;;;;4.78;2.10;;;;;;;;;;5065717;28;20291;-52
2021/04/17 10:00:52;;;;;;;2.50;1.70;;;;;;;;;;5069094;28;20477;-52
2021/04/17 10:03:25;;;;;;;8.80;1.93;;;;;;;;;;5069450;28;20051;-50
2021/04/17 10:05:52;;;;;;;3.75;1.55;;;;;;;;;;5070068;28;20279;-49
2021/04/17 10:08:25;;;;;;;3.08;1.83;;;;;;;;;;5069920;28;20139;-49
2021/04/17 10:10:51;;;;;;;4.13;1.63;;;;;;;;;;5069009;28;20036;-50
2021/04/17 10:13:35;;;;;;;8.13;1.80;;;;;;;;;;5068701;28;20440;-51
2021/04/17 10:16:02;;;;;;;5.63;1.83;;;;;;;;;;5067612;28;20045;-48
2021/04/17 10:18:28;;;;;;;5.15;1.83;;;;;;;;;;5068575;28;20155;-49
2021/04/17 10:20:55;;;;;;;4.27;1.90;;;;;;;;;;5071657;28;20067;-51
2021/04/17 10:23:21;;;;;;;4.97;1.98;;;;;;;;;;5068979;28;20037;-51
2021/04/17 10:25:47;;;;;;;6.47;1.73;;;;;;;;;;5069628;28;20106;-51
2021/04/17 10:28:25;;;;;;;10.10;1.70;;;;;;;;;;5066535;28;20048;-50
2021/04/17 10:30:54;;;;;;;6.75;1.50;;;;;;;;;;5064921;28;20115;-48
2021/04/17 10:33:20;;;;;;;;;;;;;;;;;;5070633;28;20044;-49
2021/04/17 10:35:47;;;;;;;2.65;1.30;;;;;;;;;;5068271;28;20291;-53
2021/04/17 10:38:23;;;;;;;5.27;1.97;;;;;;;;;;5068778;28;20094;-51
2021/04/17 10:40:50;;;;;;;4.80;2.00;;;;;;;;;;5068374;28;20806;-50
2021/04/17 10:43:17;;;;;;;5.95;1.75;;;;;;;;;;5069395;28;20373;-51
2021/04/17 10:45:44;;;;;;;5.28;2.25;;;;;;;;;;5066934;28;20037;-49
2021/04/17 10:48:17;;;;;;;5.22;2.03;;;;;;;;;;5072236;28;20093;-48
2021/04/17 10:50:44;;;;;;;5.40;1.95;;;;;;;;;;5069332;28;20048;-51
2021/04/17 10:53:11;;;;;;;2.95;1.73;;;;;;;;;;5070823;28;20049;-52
2021/04/17 10:55:40;;;;;;;8.45;2.30;;;;;;;;;;5065152;28;20575;-51
2021/04/17 10:58:17;;;;;;;3.35;1.90;;;;;;;;;;5070662;28;20040;-49
2021/04/17 11:00:46;;;;;;;3.78;1.65;;;;;;;;;;5071626;28;20049;-51
2021/04/17 11:03:13;;;;;;;4.80;2.08;;;;;;;;;;5068092;28;20550;-49
2021/04/17 11:05:39;;;;;;;3.88;1.50;;;;;;;;;;5069595;28;20041;-52
2021/04/17 11:08:05;;;;;;;6.47;2.10;;;;;;;;;;5067809;28;20076;-50
2021/04/17 11:10:34;;;;;;;5.07;1.70;;;;;;;;;;5070747;28;20102;-49
2021/04/17 11:13:01;;;;;;;4.00;1.75;;;;;;;;;;5066493;28;20365;-51
2021/04/17 11:15:29;;;;;;;2.80;1.40;;;;;;;;;;5066096;28;20408;-54
2021/04/17 11:18:14;;;;;;;3.00;1.83;;;;;;;;;;5066597;28;20102;-54
2021/04/17 11:20:58;;;;;;;4.57;1.90;;;;;;;;;;5065713;28;20043;-50
2021/04/17 11:23:30;;;;;;;4.95;1.67;;;;;;;;;;5068090;28;20045;-54
2021/04/17 11:25:56;;;;;;;7.43;1.98;;;;;;;;;;5070733;28;20037;-48
2021/04/17 11:28:22;;;;;;;8.15;1.98;;;;;;;;;;5069662;28;20385;-53
2021/04/17 11:30:50;;;;;;;5.97;1.60;;;;;;;;;;5068952;28;20543;-51
2021/04/17 11:33:16;;;;;;;8.98;2.00;;;;;;;;;;5084284;28;20052;-51
2021/04/17 11:35:42;;;;;;;4.22;1.85;;;;;;;;;;5070463;28;20087;-48
2021/04/17 11:38:09;;;;;;;7.03;1.75;;;;;;;;;;5069244;28;20102;-48
2021/04/17 11:40:35;;;;;;;4.53;1.75;;;;;;;;;;5070984;28;20052;-51
2021/04/17 11:43:01;;;;;;;4.55;1.98;;;;;;;;;;5066293;28;20041;-50
2021/04/17 11:45:27;;;;;;;3.55;1.50;;;;;;;;;;5067137;28;20094;-49
2021/04/17 11:47:54;;;;;;;6.00;1.52;;;;;;;;;;5067851;28;20119;-49
2021/04/17 11:50:21;;;;;;;3.90;1.77;;;;;;;;;;5066991;28;20127;-48
2021/04/17 11:52:49;;;;;;;6.50;1.55;;;;;;;;;;5070020;28;20040;-48
2021/04/17 11:55:15;;;;;;;7.57;1.75;;;;;;;;;;5063810;28;20540;-52
2021/04/17 11:57:41;;;;;;;5.10;1.70;;;;;;;;;;5068006;28;20036;-50
2021/04/17 12:00:08;;;;;;;2.72;1.67;;;;;;;;;;5066102;28;20582;-54
2021/04/17 12:02:34;;;;;;;4.65;1.50;;;;;;;;;;5064960;28;20047;-48
2021/04/17 12:05:02;;;;;;;5.68;1.65;;;;;;;;;;5067248;28;20231;-51
2021/04/17 12:07:30;;;;;;;4.63;1.85;;;;;;;;;;5066379;28;20041;-53
2021/04/17 12:09:56;;;;;;;4.82;2.13;;;;;;;;;;5064973;28;20439;-52
2021/04/17 12:12:24;;;;;;;5.35;1.77;;;;;;;;;;5065846;28;20032;-49
2021/04/17 12:14:51;;;;;;;7.35;1.55;;;;;;;;;;5068379;28;20045;-50
2021/04/17 12:17:17;;;;;;;3.95;1.88;;;;;;;;;;5066994;28;20102;-49
2021/04/17 12:19:43;;;;;;;4.93;1.67;;;;;;;;;;5064565;28;20036;-51
2021/04/17 12:22:09;;;;;;;3.75;1.70;;;;;;;;;;5066307;28;20045;-52
2021/04/17 12:24:35;;;;;;;3.85;1.80;;;;;;;;;;5062841;28;20432;-50
2021/04/17 12:27:01;;;;;;;7.30;1.88;;;;;;;;;;5067117;28;20044;-52
2021/04/17 12:29:28;;;;;;;4.70;2.00;;;;;;;;;;5067475;28;20059;-52
2021/04/17 12:31:54;;;;;;;2.97;1.50;;;;;;;;;;5067930;28;21121;-49
2021/04/17 12:34:20;;;;;;;3.17;1.38;;;;;;;;;;5069284;28;20090;-51
2021/04/17 12:36:46;;;;;;;5.55;1.85;;;;;;;;;;5068606;28;20041;-53
2021/04/17 12:39:13;;;;;;;7.43;1.90;;;;;;;;;;5065814;28;20070;-52
2021/04/17 12:41:39;;;;;;;3.40;1.30;;;;;;;;;;5069508;28;20128;-51
2021/04/17 12:44:10;;;;;;;5.47;1.80;;;;;;;;;;5066277;28;20044;-50
2021/04/17 12:46:39;;;;;;;6.25;1.90;;;;;;;;;;5064717;28;20045;-52
2021/04/17 12:49:06;;;;;;;4.57;2.00;;;;;;;;;;5070099;28;20717;-49
2021/04/17 12:51:33;;;;;;;3.92;1.73;;;;;;;;;;5062730;28;20047;-54
2021/04/17 12:53:59;;;;;;;8.05;1.85;;;;;;;;;;5064706;28;20036;-52
2021/04/17 12:56:26;;;;;;;6.13;1.75;;;;;;;;;;5066007;28;20563;-47
2021/04/17 12:58:53;;;;;;;4.95;1.50;;;;;;;;;;5068440;28;20056;-50
2021/04/17 13:01:19;;;;;;;2.80;1.45;;;;;;;;;;5067885;28;20044;-47
2021/04/17 13:03:45;;;;;;;5.07;1.85;;;;;;;;;;5066255;28;20048;-51
2021/04/17 13:06:12;;;;;;;6.47;1.65;;;;;;;;;;5063404;28;20123;-51
2021/04/17 13:08:38;;;;;;;3.72;1.75;;;;;;;;;;5062354;28;20100;-50
2021/04/17 13:11:04;;;;;;;3.92;1.40;;;;;;;;;;5065397;28;20129;-49
2021/04/17 13:13:30;;;;;;;2.90;1.70;;;;;;;;;;5067670;28;20037;-50
2021/04/17 13:16:02;;;;;;;4.88;1.42;;;;;;;;;;5069870;28;20040;-50
2021/04/17 13:18:29;;;;;;;3.35;1.58;;;;;;;;;;5065263;28;20055;-49
2021/04/17 13:20:56;;;;;;;2.80;1.45;;;;;;;;;;5066742;28;20051;-52
2021/04/17 13:23:23;;;;;;;4.28;1.40;;;;;;;;;;5066620;28;20040;-50
2021/04/17 13:25:49;;;;;;;8.13;1.60;;;;;;;;;;5067413;28;20048;-50
2021/04/17 13:28:16;;;;;;;4.28;1.77;;;;;;;;;;5062912;28;20068;-54
2021/04/17 13:30:42;;;;;;;3.67;1.73;;;;;;;;;;5062546;28;20520;-49
2021/04/17 13:33:08;;;;;;;6.82;1.63;;;;;;;;;;5070277;28;20098;-53
2021/04/17 13:35:36;;;;;;;4.57;1.60;;;;;;;;;;5066031;28;20534;-51
2021/04/17 13:38:02;;;;;;;3.53;1.33;;;;;;;;;;5067699;28;20055;-54
2021/04/17 13:40:28;;;;;;;4.20;1.52;;;;;;;;;;5064930;28;20089;-50
2021/04/17 13:42:55;;;;;;;8.75;1.50;;;;;;;;;;5063595;28;20106;-49
2021/04/17 13:45:21;;;;;;;3.85;1.50;;;;;;;;;;5066830;28;20120;-47
2021/04/17 13:47:47;;;;;;;3.50;1.55;;;;;;;;;;5064647;28;20040;-51
2021/04/17 13:50:14;;;;;;;1.95;1.42;;;;;;;;;;5063176;28;20056;-53
2021/04/17 13:52:40;;;;;;;3.63;1.63;;;;;;;;;;5063120;28;20461;-48
2021/04/17 13:55:08;;;;;;;2.53;1.45;;;;;;;;;;5070221;28;20036;-51
2021/04/17 13:57:35;;;;;;;2.97;1.35;;;;;;;;;;5069259;28;20052;-49
2021/04/17 14:00:03;;;;;;;1.77;1.17;;;;;;;;;;5069140;28;20048;-51
2021/04/17 14:02:30;;;;;;;2.58;1.55;;;;;;;;;;5062988;28;20325;-50
2021/04/17 14:04:57;;;;;;;3.65;1.58;;;;;;;;;;5060629;28;20520;-48
2021/04/17 14:07:23;;;;;;;5.20;1.58;;;;;;;;;;5065111;28;20041;-53
2021/04/17 14:09:49;;;;;;;2.72;1.50;;;;;;;;;;5068739;28;20082;-51
2021/04/17 14:12:16;;;;;;;1.98;1.40;;;;;;;;;;5067194;28;20084;-52
2021/04/17 14:14:42;;;;;;;4.03;1.33;;;;;;;;;;5066549;28;20060;-49
2021/04/17 14:17:08;;;;;;;5.10;1.52;;;;;;;;;;5067978;28;20056;-50
2021/04/17 14:19:35;;;;;;;3.67;1.60;;;;;;;;;;5062360;28;20048;-50
2021/04/17 14:22:02;;;;;;;3.33;1.38;;;;;;;;;;5065770;28;20551;-52
2021/04/17 14:24:28;;;;;;;4.57;1.70;;;;;;;;;;5064898;28;20048;-52
2021/04/17 14:26:54;;;;;;;2.58;1.33;;;;;;;;;;5065224;28;20085;-48
2021/04/17 14:29:20;;;;;;;3.08;1.42;;;;;;;;;;5064704;28;20730;-48
2021/04/17 14:31:47;;;;;;;3.60;1.40;;;;;;;;;;5064310;28;20041;-52
2021/04/17 14:34:13;;;;;;;4.60;1.70;;;;;;;;;;5066669;28;20051;-52
2021/04/17 14:36:40;;;;;;;3.05;1.70;;;;;;;;;;5063894;28;20043;-49
2021/04/17 14:39:07;;;;;;;4.72;1.58;;;;;;;;;;5064401;28;20115;-48
2021/04/17 14:41:34;;;;;;;6.25;1.50;;;;;;;;;;5067126;28;20064;-50
2021/04/17 14:44:10;;;;;;;2.35;1.30;;;;;;;;;;5068956;28;20612;-53
2021/04/17 14:46:57;;;;;;;2.00;1.35;;;;;;;;;;5066422;28;20045;-52